sensor_id;sensor_type;location;lat;lon;timestamp;temperature;humidity
6822;DHT22;3449;48.728;8.968;2023-07-08T00:00:14;21.20;85.80
6822;DHT22;3449;48.728;8.968;2023-07-08T00:02:42;21.10;86.70
6822;DHT22;3449;48.728;8.968;2023-07-08T00:05:09;21.00;86.80
6822;DHT22;3449;48.728;8.968;2023-07-08T00:07:39;21.00;87.20
6822;DHT22;3449;48.728;8.968;2023-07-08T00:10:13;21.00;87.40
6822;DHT22;3449;48.728;8.968;2023-07-08T00:12:41;20.90;87.70
6822;DHT22;3449;48.728;8.968;2023-07-08T00:15:11;20.90;88.20
6822;DHT22;3449;48.728;8.968;2023-07-08T00:17:38;20.90;88.00
6822;DHT22;3449;48.728;8.968;2023-07-08T00:20:11;20.90;88.10
6822;DHT22;3449;48.728;8.968;2023-07-08T00:22:41;20.80;89.70
6822;DHT22;3449;48.728;8.968;2023-07-08T00:25:09;20.80;90.00
6822;DHT22;3449;48.728;8.968;2023-07-08T00:27:36;20.80;90.40
6822;DHT22;3449;48.728;8.968;2023-07-08T00:30:17;20.70;90.30
6822;DHT22;3449;48.728;8.968;2023-07-08T00:32:45;20.70;90.30
6822;DHT22;3449;48.728;8.968;2023-07-08T00:35:17;20.60;90.30
6822;DHT22;3449;48.728;8.968;2023-07-08T00:37:46;20.60;90.60
6822;DHT22;3449;48.728;8.968;2023-07-08T00:40:15;20.50;90.50
6822;DHT22;3449;48.728;8.968;2023-07-08T00:42:44;20.50;90.50
6822;DHT22;3449;48.728;8.968;2023-07-08T00:45:18;20.40;90.60
6822;DHT22;3449;48.728;8.968;2023-07-08T00:47:47;20.30;90.70
6822;DHT22;3449;48.728;8.968;2023-07-08T00:50:15;20.30;90.80
6822;DHT22;3449;48.728;8.968;2023-07-08T00:52:44;20.20;91.00
6822;DHT22;3449;48.728;8.968;2023-07-08T00:55:14;20.20;91.30
6822;DHT22;3449;48.728;8.968;2023-07-08T00:57:43;20.20;91.60
6822;DHT22;3449;48.728;8.968;2023-07-08T01:00:14;20.20;91.70
6822;DHT22;3449;48.728;8.968;2023-07-08T01:02:46;20.10;91.80
6822;DHT22;3449;48.728;8.968;2023-07-08T01:05:17;20.10;92.00
6822;DHT22;3449;48.728;8.968;2023-07-08T01:07:50;20.00;92.30
6822;DHT22;3449;48.728;8.968;2023-07-08T01:10:26;20.00;92.40
6822;DHT22;3449;48.728;8.968;2023-07-08T01:12:56;20.00;92.30
6822;DHT22;3449;48.728;8.968;2023-07-08T01:15:33;19.90;92.60
6822;DHT22;3449;48.728;8.968;2023-07-08T01:18:02;19.80;93.10
6822;DHT22;3449;48.728;8.968;2023-07-08T01:20:29;19.70;94.10
6822;DHT22;3449;48.728;8.968;2023-07-08T01:22:57;19.50;95.30
6822;DHT22;3449;48.728;8.968;2023-07-08T01:25:24;19.40;96.40
6822;DHT22;3449;48.728;8.968;2023-07-08T01:27:55;19.30;97.40
6822;DHT22;3449;48.728;8.968;2023-07-08T01:30:23;19.20;98.10
6822;DHT22;3449;48.728;8.968;2023-07-08T01:32:59;19.20;98.70
6822;DHT22;3449;48.728;8.968;2023-07-08T01:35:26;19.20;99.70
6822;DHT22;3449;48.728;8.968;2023-07-08T01:38:00;19.20;99.90
6822;DHT22;3449;48.728;8.968;2023-07-08T01:40:29;19.10;99.90
6822;DHT22;3449;48.728;8.968;2023-07-08T01:42:57;19.10;99.90
6822;DHT22;3449;48.728;8.968;2023-07-08T01:45:26;19.00;99.90
6822;DHT22;3449;48.728;8.968;2023-07-08T01:47:57;18.90;99.90
6822;DHT22;3449;48.728;8.968;2023-07-08T01:50:27;18.80;99.90
6822;DHT22;3449;48.728;8.968;2023-07-08T01:52:58;18.80;99.90
6822;DHT22;3449;48.728;8.968;2023-07-08T01:55:30;18.70;99.90
6822;DHT22;3449;48.728;8.968;2023-07-08T01:57:57;18.60;99.90
6822;DHT22;3449;48.728;8.968;2023-07-08T02:00:24;18.60;99.90
6822;DHT22;3449;48.728;8.968;2023-07-08T02:02:51;18.50;99.90
6822;DHT22;3449;48.728;8.968;2023-07-08T02:05:18;18.40;99.90
6822;DHT22;3449;48.728;8.968;2023-07-08T02:07:45;18.30;99.90
6822;DHT22;3449;48.728;8.968;2023-07-08T02:10:11;18.30;99.90
6822;DHT22;3449;48.728;8.968;2023-07-08T02:12:40;18.30;99.90
6822;DHT22;3449;48.728;8.968;2023-07-08T02:15:10;18.30;99.90
6822;DHT22;3449;48.728;8.968;2023-07-08T02:17:37;18.30;99.90
6822;DHT22;3449;48.728;8.968;2023-07-08T02:20:05;18.30;99.90
6822;DHT22;3449;48.728;8.968;2023-07-08T02:22:33;18.30;99.90
6822;DHT22;3449;48.728;8.968;2023-07-08T02:25:00;18.30;99.90
6822;DHT22;3449;48.728;8.968;2023-07-08T02:27:28;18.30;99.90
6822;DHT22;3449;48.728;8.968;2023-07-08T02:29:56;18.30;99.90
6822;DHT22;3449;48.728;8.968;2023-07-08T02:32:23;18.40;99.90
6822;DHT22;3449;48.728;8.968;2023-07-08T02:34:50;18.30;99.90
6822;DHT22;3449;48.728;8.968;2023-07-08T02:37:18;18.40;99.90
6822;DHT22;3449;48.728;8.968;2023-07-08T02:39:44;18.40;99.90
6822;DHT22;3449;48.728;8.968;2023-07-08T02:42:14;18.40;99.90
6822;DHT22;3449;48.728;8.968;2023-07-08T02:44:40;18.40;99.90
6822;DHT22;3449;48.728;8.968;2023-07-08T02:47:09;18.40;99.90
6822;DHT22;3449;48.728;8.968;2023-07-08T02:49:36;18.40;99.90
6822;DHT22;3449;48.728;8.968;2023-07-08T02:52:03;18.40;99.90
6822;DHT22;3449;48.728;8.968;2023-07-08T02:54:32;18.40;99.90
6822;DHT22;3449;48.728;8.968;2023-07-08T02:56:59;18.40;99.90
6822;DHT22;3449;48.728;8.968;2023-07-08T02:59:31;18.30;99.90
6822;DHT22;3449;48.728;8.968;2023-07-08T03:01:58;18.20;99.90
6822;DHT22;3449;48.728;8.968;2023-07-08T03:04:29;18.20;99.90
6822;DHT22;3449;48.728;8.968;2023-07-08T03:06:59;18.20;99.90
6822;DHT22;3449;48.728;8.968;2023-07-08T03:09:26;18.10;99.90
6822;DHT22;3449;48.728;8.968;2023-07-08T03:11:57;18.00;99.90
6822;DHT22;3449;48.728;8.968;2023-07-08T03:14:24;17.90;99.90
6822;DHT22;3449;48.728;8.968;2023-07-08T03:16:51;17.80;99.90
6822;DHT22;3449;48.728;8.968;2023-07-08T03:19:17;17.70;99.90
6822;DHT22;3449;48.728;8.968;2023-07-08T03:21:48;17.50;99.90
6822;DHT22;3449;48.728;8.968;2023-07-08T03:24:15;17.50;99.90
6822;DHT22;3449;48.728;8.968;2023-07-08T03:26:46;17.40;99.90
6822;DHT22;3449;48.728;8.968;2023-07-08T03:29:15;17.40;99.90
6822;DHT22;3449;48.728;8.968;2023-07-08T03:31:42;17.40;99.90
6822;DHT22;3449;48.728;8.968;2023-07-08T03:34:12;17.50;99.90
6822;DHT22;3449;48.728;8.968;2023-07-08T03:36:43;17.50;99.90
6822;DHT22;3449;48.728;8.968;2023-07-08T03:39:16;17.60;99.90
6822;DHT22;3449;48.728;8.968;2023-07-08T03:41:45;17.60;99.90
6822;DHT22;3449;48.728;8.968;2023-07-08T03:44:12;17.60;99.90
6822;DHT22;3449;48.728;8.968;2023-07-08T03:46:41;17.70;99.90
6822;DHT22;3449;48.728;8.968;2023-07-08T03:49:09;17.70;99.90
6822;DHT22;3449;48.728;8.968;2023-07-08T03:51:37;17.80;99.90
6822;DHT22;3449;48.728;8.968;2023-07-08T03:54:05;17.80;99.90
6822;DHT22;3449;48.728;8.968;2023-07-08T03:56:33;17.80;99.90
6822;DHT22;3449;48.728;8.968;2023-07-08T03:59:00;17.90;99.90
6822;DHT22;3449;48.728;8.968;2023-07-08T04:01:29;18.00;99.90
6822;DHT22;3449;48.728;8.968;2023-07-08T04:03:57;18.10;99.90
6822;DHT22;3449;48.728;8.968;2023-07-08T04:06:25;18.10;99.90
6822;DHT22;3449;48.728;8.968;2023-07-08T04:08:54;18.20;99.90
6822;DHT22;3449;48.728;8.968;2023-07-08T04:11:22;18.20;99.90
6822;DHT22;3449;48.728;8.968;2023-07-08T04:13:51;18.30;99.90
6822;DHT22;3449;48.728;8.968;2023-07-08T04:16:20;18.40;99.90
6822;DHT22;3449;48.728;8.968;2023-07-08T04:18:48;18.40;99.90
6822;DHT22;3449;48.728;8.968;2023-07-08T04:21:16;18.60;99.90
6822;DHT22;3449;48.728;8.968;2023-07-08T04:23:44;18.60;99.90
6822;DHT22;3449;48.728;8.968;2023-07-08T04:26:10;18.60;99.90
6822;DHT22;3449;48.728;8.968;2023-07-08T04:28:37;18.70;99.90
6822;DHT22;3449;48.728;8.968;2023-07-08T04:31:11;18.70;99.90
6822;DHT22;3449;48.728;8.968;2023-07-08T04:33:41;18.70;99.90
6822;DHT22;3449;48.728;8.968;2023-07-08T04:36:12;18.80;99.90
6822;DHT22;3449;48.728;8.968;2023-07-08T04:38:39;18.80;99.90
6822;DHT22;3449;48.728;8.968;2023-07-08T04:41:07;18.90;99.90
6822;DHT22;3449;48.728;8.968;2023-07-08T04:43:34;19.00;99.90
6822;DHT22;3449;48.728;8.968;2023-07-08T04:46:01;18.90;99.90
6822;DHT22;3449;48.728;8.968;2023-07-08T04:48:29;18.90;99.90
6822;DHT22;3449;48.728;8.968;2023-07-08T04:50:58;18.90;99.90
6822;DHT22;3449;48.728;8.968;2023-07-08T04:53:25;18.80;99.90
6822;DHT22;3449;48.728;8.968;2023-07-08T04:55:55;18.80;99.90
6822;DHT22;3449;48.728;8.968;2023-07-08T04:58:23;18.70;99.90
6822;DHT22;3449;48.728;8.968;2023-07-08T05:00:49;18.70;99.90
6822;DHT22;3449;48.728;8.968;2023-07-08T05:03:16;18.70;99.90
6822;DHT22;3449;48.728;8.968;2023-07-08T05:05:45;18.70;99.90
6822;DHT22;3449;48.728;8.968;2023-07-08T05:08:12;18.70;99.90
6822;DHT22;3449;48.728;8.968;2023-07-08T05:10:39;18.80;99.90
6822;DHT22;3449;48.728;8.968;2023-07-08T05:13:06;18.80;99.90
6822;DHT22;3449;48.728;8.968;2023-07-08T05:15:33;18.90;99.90
6822;DHT22;3449;48.728;8.968;2023-07-08T05:18:01;19.10;99.90
6822;DHT22;3449;48.728;8.968;2023-07-08T05:20:31;19.30;99.90
6822;DHT22;3449;48.728;8.968;2023-07-08T05:23:01;19.40;99.90
6822;DHT22;3449;48.728;8.968;2023-07-08T05:25:32;19.50;99.90
6822;DHT22;3449;48.728;8.968;2023-07-08T05:27:59;19.50;99.90
6822;DHT22;3449;48.728;8.968;2023-07-08T05:30:26;19.60;99.90
6822;DHT22;3449;48.728;8.968;2023-07-08T05:32:55;19.70;99.90
6822;DHT22;3449;48.728;8.968;2023-07-08T05:35:22;19.80;99.90
6822;DHT22;3449;48.728;8.968;2023-07-08T05:37:50;19.90;99.90
6822;DHT22;3449;48.728;8.968;2023-07-08T05:40:18;20.00;99.90
6822;DHT22;3449;48.728;8.968;2023-07-08T05:42:45;20.10;99.90
6822;DHT22;3449;48.728;8.968;2023-07-08T05:45:11;20.20;99.90
6822;DHT22;3449;48.728;8.968;2023-07-08T05:47:38;20.20;99.90
6822;DHT22;3449;48.728;8.968;2023-07-08T05:50:06;20.30;99.90
6822;DHT22;3449;48.728;8.968;2023-07-08T05:52:33;20.40;99.90
6822;DHT22;3449;48.728;8.968;2023-07-08T05:55:05;20.30;99.90
6822;DHT22;3449;48.728;8.968;2023-07-08T05:57:33;20.40;99.90
6822;DHT22;3449;48.728;8.968;2023-07-08T06:00:00;20.40;99.90
6822;DHT22;3449;48.728;8.968;2023-07-08T06:02:27;20.40;99.90
6822;DHT22;3449;48.728;8.968;2023-07-08T06:04:54;20.50;99.90
6822;DHT22;3449;48.728;8.968;2023-07-08T06:07:21;20.60;99.90
6822;DHT22;3449;48.728;8.968;2023-07-08T06:09:49;20.70;99.90
6822;DHT22;3449;48.728;8.968;2023-07-08T06:12:16;21.00;99.90
6822;DHT22;3449;48.728;8.968;2023-07-08T06:14:45;21.20;99.90
6822;DHT22;3449;48.728;8.968;2023-07-08T06:17:11;21.30;99.90
6822;DHT22;3449;48.728;8.968;2023-07-08T06:19:38;21.40;99.90
6822;DHT22;3449;48.728;8.968;2023-07-08T06:22:05;21.50;99.90
6822;DHT22;3449;48.728;8.968;2023-07-08T06:24:32;21.60;99.90
6822;DHT22;3449;48.728;8.968;2023-07-08T06:26:59;21.60;99.90
6822;DHT22;3449;48.728;8.968;2023-07-08T06:29:26;21.70;99.90
6822;DHT22;3449;48.728;8.968;2023-07-08T06:31:54;21.70;99.90
6822;DHT22;3449;48.728;8.968;2023-07-08T06:34:22;21.80;99.90
6822;DHT22;3449;48.728;8.968;2023-07-08T06:36:49;21.90;99.90
6822;DHT22;3449;48.728;8.968;2023-07-08T06:39:17;22.10;99.90
6822;DHT22;3449;48.728;8.968;2023-07-08T06:41:44;22.40;99.90
6822;DHT22;3449;48.728;8.968;2023-07-08T06:44:11;22.70;99.90
6822;DHT22;3449;48.728;8.968;2023-07-08T06:46:38;22.90;99.90
6822;DHT22;3449;48.728;8.968;2023-07-08T06:49:06;23.20;99.90
6822;DHT22;3449;48.728;8.968;2023-07-08T06:51:34;23.40;99.90
6822;DHT22;3449;48.728;8.968;2023-07-08T06:54:01;23.40;99.90
6822;DHT22;3449;48.728;8.968;2023-07-08T06:56:30;23.30;99.90
6822;DHT22;3449;48.728;8.968;2023-07-08T06:58:57;23.30;99.90
6822;DHT22;3449;48.728;8.968;2023-07-08T07:01:24;23.30;99.90
6822;DHT22;3449;48.728;8.968;2023-07-08T07:03:53;23.30;99.90
6822;DHT22;3449;48.728;8.968;2023-07-08T07:06:21;23.30;99.90
6822;DHT22;3449;48.728;8.968;2023-07-08T07:08:48;23.20;99.90
6822;DHT22;3449;48.728;8.968;2023-07-08T07:11:15;23.30;99.90
6822;DHT22;3449;48.728;8.968;2023-07-08T07:13:42;23.30;99.90
6822;DHT22;3449;48.728;8.968;2023-07-08T07:16:09;23.20;99.90
6822;DHT22;3449;48.728;8.968;2023-07-08T07:18:35;23.30;99.90
6822;DHT22;3449;48.728;8.968;2023-07-08T07:21:03;23.40;99.90
6822;DHT22;3449;48.728;8.968;2023-07-08T07:23:31;23.40;99.90
6822;DHT22;3449;48.728;8.968;2023-07-08T07:25:58;23.40;99.90
6822;DHT22;3449;48.728;8.968;2023-07-08T07:28:26;23.60;99.90
6822;DHT22;3449;48.728;8.968;2023-07-08T07:30:57;23.70;99.90
6822;DHT22;3449;48.728;8.968;2023-07-08T07:33:26;23.70;99.90
6822;DHT22;3449;48.728;8.968;2023-07-08T07:35:53;23.80;99.90
6822;DHT22;3449;48.728;8.968;2023-07-08T07:38:20;23.90;99.90
6822;DHT22;3449;48.728;8.968;2023-07-08T07:40:48;24.00;99.90
6822;DHT22;3449;48.728;8.968;2023-07-08T07:43:21;24.20;99.90
6822;DHT22;3449;48.728;8.968;2023-07-08T07:45:50;24.40;99.90
6822;DHT22;3449;48.728;8.968;2023-07-08T07:48:17;24.40;99.90
6822;DHT22;3449;48.728;8.968;2023-07-08T07:50:45;24.70;99.90
6822;DHT22;3449;48.728;8.968;2023-07-08T07:53:12;25.10;99.90
6822;DHT22;3449;48.728;8.968;2023-07-08T07:55:39;25.50;99.90
6822;DHT22;3449;48.728;8.968;2023-07-08T07:58:08;25.60;99.90
6822;DHT22;3449;48.728;8.968;2023-07-08T08:00:37;25.50;99.90
6822;DHT22;3449;48.728;8.968;2023-07-08T08:03:03;25.30;99.90
6822;DHT22;3449;48.728;8.968;2023-07-08T08:05:30;25.10;99.90
6822;DHT22;3449;48.728;8.968;2023-07-08T08:08:00;25.10;99.90
6822;DHT22;3449;48.728;8.968;2023-07-08T08:10:29;25.30;99.90
6822;DHT22;3449;48.728;8.968;2023-07-08T08:12:56;25.60;99.90
6822;DHT22;3449;48.728;8.968;2023-07-08T08:15:25;25.90;99.90
6822;DHT22;3449;48.728;8.968;2023-07-08T08:17:51;26.10;99.90
6822;DHT22;3449;48.728;8.968;2023-07-08T08:20:19;26.00;99.90
6822;DHT22;3449;48.728;8.968;2023-07-08T08:22:46;25.90;99.90
6822;DHT22;3449;48.728;8.968;2023-07-08T08:25:14;25.80;99.90
6822;DHT22;3449;48.728;8.968;2023-07-08T08:27:41;26.20;99.90
6822;DHT22;3449;48.728;8.968;2023-07-08T08:30:10;26.50;99.90
6822;DHT22;3449;48.728;8.968;2023-07-08T08:32:38;26.50;99.90
6822;DHT22;3449;48.728;8.968;2023-07-08T08:35:09;26.40;99.90
6822;DHT22;3449;48.728;8.968;2023-07-08T08:37:35;26.70;99.90
6822;DHT22;3449;48.728;8.968;2023-07-08T08:40:03;26.80;99.90
6822;DHT22;3449;48.728;8.968;2023-07-08T08:42:38;26.90;99.90
6822;DHT22;3449;48.728;8.968;2023-07-08T08:45:09;26.90;99.90
6822;DHT22;3449;48.728;8.968;2023-07-08T08:47:40;26.70;99.90
6822;DHT22;3449;48.728;8.968;2023-07-08T08:50:24;26.80;99.90
6822;DHT22;3449;48.728;8.968;2023-07-08T08:52:53;27.40;99.90
6822;DHT22;3449;48.728;8.968;2023-07-08T08:55:25;27.80;99.90
6822;DHT22;3449;48.728;8.968;2023-07-08T08:58:01;28.20;99.90
6822;DHT22;3449;48.728;8.968;2023-07-08T09:00:35;28.50;99.90
6822;DHT22;3449;48.728;8.968;2023-07-08T09:03:10;28.80;99.90
6822;DHT22;3449;48.728;8.968;2023-07-08T09:05:38;28.90;99.90
6822;DHT22;3449;48.728;8.968;2023-07-08T09:08:10;28.90;99.90
6822;DHT22;3449;48.728;8.968;2023-07-08T09:10:44;28.70;99.90
6822;DHT22;3449;48.728;8.968;2023-07-08T09:13:17;28.50;99.90
6822;DHT22;3449;48.728;8.968;2023-07-08T09:15:48;28.40;99.90
6822;DHT22;3449;48.728;8.968;2023-07-08T09:18:23;28.10;99.90
6822;DHT22;3449;48.728;8.968;2023-07-08T09:20:53;28.10;99.90
6822;DHT22;3449;48.728;8.968;2023-07-08T09:23:25;27.80;99.90
6822;DHT22;3449;48.728;8.968;2023-07-08T09:25:58;27.40;99.90
6822;DHT22;3449;48.728;8.968;2023-07-08T09:28:36;27.30;99.90
6822;DHT22;3449;48.728;8.968;2023-07-08T09:31:06;27.30;99.90
6822;DHT22;3449;48.728;8.968;2023-07-08T09:33:37;27.30;99.90
6822;DHT22;3449;48.728;8.968;2023-07-08T09:36:16;27.50;99.90
6822;DHT22;3449;48.728;8.968;2023-07-08T09:38:47;27.80;99.90
6822;DHT22;3449;48.728;8.968;2023-07-08T09:41:28;28.10;99.90
6822;DHT22;3449;48.728;8.968;2023-07-08T09:44:04;28.50;99.90
6822;DHT22;3449;48.728;8.968;2023-07-08T09:46:36;28.90;99.90
6822;DHT22;3449;48.728;8.968;2023-07-08T09:49:16;29.20;99.90
6822;DHT22;3449;48.728;8.968;2023-07-08T09:51:46;29.00;99.90
6822;DHT22;3449;48.728;8.968;2023-07-08T09:54:17;29.20;99.90
6822;DHT22;3449;48.728;8.968;2023-07-08T09:56:54;29.60;99.90
6822;DHT22;3449;48.728;8.968;2023-07-08T09:59:26;29.80;99.90
6822;DHT22;3449;48.728;8.968;2023-07-08T10:01:54;30.10;99.90
6822;DHT22;3449;48.728;8.968;2023-07-08T10:04:22;30.30;99.90
6822;DHT22;3449;48.728;8.968;2023-07-08T10:06:49;30.80;99.90
6822;DHT22;3449;48.728;8.968;2023-07-08T10:09:20;31.00;99.90
6822;DHT22;3449;48.728;8.968;2023-07-08T10:11:54;30.60;99.90
6822;DHT22;3449;48.728;8.968;2023-07-08T10:14:26;30.90;99.90
6822;DHT22;3449;48.728;8.968;2023-07-08T10:16:54;30.90;99.90
6822;DHT22;3449;48.728;8.968;2023-07-08T10:19:25;31.00;99.90
6822;DHT22;3449;48.728;8.968;2023-07-08T10:22:00;31.10;99.90
6822;DHT22;3449;48.728;8.968;2023-07-08T10:24:38;31.20;99.90
6822;DHT22;3449;48.728;8.968;2023-07-08T10:27:17;31.40;99.90
6822;DHT22;3449;48.728;8.968;2023-07-08T10:29:51;31.70;99.90
6822;DHT22;3449;48.728;8.968;2023-07-08T10:32:28;31.70;99.80
6822;DHT22;3449;48.728;8.968;2023-07-08T10:35:12;31.80;99.40
6822;DHT22;3449;48.728;8.968;2023-07-08T10:37:47;32.00;98.30
6822;DHT22;3449;48.728;8.968;2023-07-08T10:40:28;32.00;98.90
6822;DHT22;3449;48.728;8.968;2023-07-08T10:46:03;32.20;96.90
6822;DHT22;3449;48.728;8.968;2023-07-08T10:48:55;31.80;96.90
6822;DHT22;3449;48.728;8.968;2023-07-08T10:51:30;31.60;97.50
6822;DHT22;3449;48.728;8.968;2023-07-08T10:57:19;31.90;97.20
6822;DHT22;3449;48.728;8.968;2023-07-08T10:59:57;31.60;96.20
6822;DHT22;3449;48.728;8.968;2023-07-08T11:05:31;32.40;94.90
6822;DHT22;3449;48.728;8.968;2023-07-08T11:08:07;32.80;95.20
6822;DHT22;3449;48.728;8.968;2023-07-08T11:10:43;32.40;93.20
6822;DHT22;3449;48.728;8.968;2023-07-08T11:13:14;32.30;93.90
6822;DHT22;3449;48.728;8.968;2023-07-08T11:15:49;32.80;93.50
6822;DHT22;3449;48.728;8.968;2023-07-08T11:18:22;33.10;92.40
6822;DHT22;3449;48.728;8.968;2023-07-08T11:20:55;33.00;91.30
6822;DHT22;3449;48.728;8.968;2023-07-08T11:23:29;33.50;90.70
6822;DHT22;3449;48.728;8.968;2023-07-08T11:26:10;33.50;91.70
6822;DHT22;3449;48.728;8.968;2023-07-08T11:28:38;33.20;91.00
6822;DHT22;3449;48.728;8.968;2023-07-08T11:31:05;32.70;91.20
6822;DHT22;3449;48.728;8.968;2023-07-08T11:33:33;32.70;91.60
6822;DHT22;3449;48.728;8.968;2023-07-08T11:36:02;32.40;91.20
6822;DHT22;3449;48.728;8.968;2023-07-08T11:38:34;32.20;91.70
6822;DHT22;3449;48.728;8.968;2023-07-08T11:41:03;32.80;92.10
6822;DHT22;3449;48.728;8.968;2023-07-08T11:43:36;33.30;92.30
6822;DHT22;3449;48.728;8.968;2023-07-08T11:46:05;33.60;91.90
6822;DHT22;3449;48.728;8.968;2023-07-08T11:48:38;33.60;90.00
6822;DHT22;3449;48.728;8.968;2023-07-08T11:51:06;33.60;87.40
6822;DHT22;3449;48.728;8.968;2023-07-08T11:53:48;33.70;86.70
6822;DHT22;3449;48.728;8.968;2023-07-08T11:56:23;33.80;86.40
6822;DHT22;3449;48.728;8.968;2023-07-08T11:58:57;33.70;85.10
6822;DHT22;3449;48.728;8.968;2023-07-08T12:01:27;33.60;84.30
6822;DHT22;3449;48.728;8.968;2023-07-08T12:03:59;34.20;83.80
6822;DHT22;3449;48.728;8.968;2023-07-08T12:06:43;33.70;82.70
6822;DHT22;3449;48.728;8.968;2023-07-08T12:09:22;33.60;84.60
6822;DHT22;3449;48.728;8.968;2023-07-08T12:11:55;33.90;81.00
6822;DHT22;3449;48.728;8.968;2023-07-08T12:14:25;33.90;79.80
6822;DHT22;3449;48.728;8.968;2023-07-08T12:16:53;34.20;81.50
6822;DHT22;3449;48.728;8.968;2023-07-08T12:19:22;34.40;79.20
6822;DHT22;3449;48.728;8.968;2023-07-08T12:21:52;34.70;77.70
6822;DHT22;3449;48.728;8.968;2023-07-08T12:24:20;34.60;78.60
6822;DHT22;3449;48.728;8.968;2023-07-08T12:26:52;34.70;77.00
6822;DHT22;3449;48.728;8.968;2023-07-08T12:29:19;34.80;76.90
6822;DHT22;3449;48.728;8.968;2023-07-08T12:31:46;34.90;77.50
6822;DHT22;3449;48.728;8.968;2023-07-08T12:34:14;34.60;76.20
6822;DHT22;3449;48.728;8.968;2023-07-08T12:36:42;34.20;76.80
6822;DHT22;3449;48.728;8.968;2023-07-08T12:39:13;34.70;76.00
6822;DHT22;3449;48.728;8.968;2023-07-08T12:41:47;34.90;74.80
6822;DHT22;3449;48.728;8.968;2023-07-08T12:44:18;35.30;74.30
6822;DHT22;3449;48.728;8.968;2023-07-08T12:46:46;35.80;74.70
6822;DHT22;3449;48.728;8.968;2023-07-08T12:49:15;36.30;75.50
6822;DHT22;3449;48.728;8.968;2023-07-08T12:51:44;35.40;71.30
6822;DHT22;3449;48.728;8.968;2023-07-08T12:54:12;35.00;71.00
6822;DHT22;3449;48.728;8.968;2023-07-08T12:56:42;35.20;71.60
6822;DHT22;3449;48.728;8.968;2023-07-08T12:59:17;35.00;72.80
6822;DHT22;3449;48.728;8.968;2023-07-08T13:01:46;34.50;71.30
6822;DHT22;3449;48.728;8.968;2023-07-08T13:04:14;34.70;72.00
6822;DHT22;3449;48.728;8.968;2023-07-08T13:06:43;35.00;71.30
6822;DHT22;3449;48.728;8.968;2023-07-08T13:09:23;35.20;70.30
6822;DHT22;3449;48.728;8.968;2023-07-08T13:11:51;35.30;67.70
6822;DHT22;3449;48.728;8.968;2023-07-08T13:14:24;35.30;67.20
6822;DHT22;3449;48.728;8.968;2023-07-08T13:16:53;34.50;69.00
6822;DHT22;3449;48.728;8.968;2023-07-08T13:19:20;34.40;71.30
6822;DHT22;3449;48.728;8.968;2023-07-08T13:21:50;34.20;72.50
6822;DHT22;3449;48.728;8.968;2023-07-08T13:24:18;34.30;72.00
6822;DHT22;3449;48.728;8.968;2023-07-08T13:26:46;34.80;70.90
6822;DHT22;3449;48.728;8.968;2023-07-08T13:29:15;34.70;72.00
6822;DHT22;3449;48.728;8.968;2023-07-08T13:31:47;34.40;72.70
6822;DHT22;3449;48.728;8.968;2023-07-08T13:34:16;33.80;73.80
6822;DHT22;3449;48.728;8.968;2023-07-08T13:36:45;33.90;73.70
6822;DHT22;3449;48.728;8.968;2023-07-08T13:39:17;33.50;72.60
6822;DHT22;3449;48.728;8.968;2023-07-08T13:41:46;33.50;73.10
6822;DHT22;3449;48.728;8.968;2023-07-08T13:44:13;33.50;71.90
6822;DHT22;3449;48.728;8.968;2023-07-08T13:46:49;33.50;71.40
6822;DHT22;3449;48.728;8.968;2023-07-08T13:49:20;33.90;73.10
6822;DHT22;3449;48.728;8.968;2023-07-08T13:51:49;34.70;76.70
6822;DHT22;3449;48.728;8.968;2023-07-08T13:54:21;35.40;72.20
6822;DHT22;3449;48.728;8.968;2023-07-08T13:56:50;35.70;69.90
6822;DHT22;3449;48.728;8.968;2023-07-08T13:59:20;35.10;68.40
6822;DHT22;3449;48.728;8.968;2023-07-08T14:01:51;34.90;70.40
6822;DHT22;3449;48.728;8.968;2023-07-08T14:04:23;35.20;68.00
6822;DHT22;3449;48.728;8.968;2023-07-08T14:06:57;35.70;69.00
6822;DHT22;3449;48.728;8.968;2023-07-08T14:09:25;35.80;67.60
6822;DHT22;3449;48.728;8.968;2023-07-08T14:11:52;36.10;67.50
6822;DHT22;3449;48.728;8.968;2023-07-08T14:14:19;36.20;65.40
6822;DHT22;3449;48.728;8.968;2023-07-08T14:16:50;36.10;66.20
6822;DHT22;3449;48.728;8.968;2023-07-08T14:19:21;36.00;67.80
6822;DHT22;3449;48.728;8.968;2023-07-08T14:21:53;36.00;67.90
6822;DHT22;3449;48.728;8.968;2023-07-08T14:24:20;36.10;66.00
6822;DHT22;3449;48.728;8.968;2023-07-08T14:26:47;36.10;65.70
6822;DHT22;3449;48.728;8.968;2023-07-08T14:29:14;36.40;68.00
6822;DHT22;3449;48.728;8.968;2023-07-08T14:31:41;36.50;65.80
6822;DHT22;3449;48.728;8.968;2023-07-08T14:34:12;36.80;68.20
6822;DHT22;3449;48.728;8.968;2023-07-08T14:36:39;36.60;66.40
6822;DHT22;3449;48.728;8.968;2023-07-08T14:39:11;36.60;65.30
6822;DHT22;3449;48.728;8.968;2023-07-08T14:41:39;36.60;66.30
6822;DHT22;3449;48.728;8.968;2023-07-08T14:44:20;36.60;66.70
6822;DHT22;3449;48.728;8.968;2023-07-08T14:46:47;36.00;66.70
6822;DHT22;3449;48.728;8.968;2023-07-08T14:49:20;35.60;66.90
6822;DHT22;3449;48.728;8.968;2023-07-08T14:51:47;35.70;69.00
6822;DHT22;3449;48.728;8.968;2023-07-08T14:54:14;35.60;67.80
6822;DHT22;3449;48.728;8.968;2023-07-08T14:56:41;35.70;68.90
6822;DHT22;3449;48.728;8.968;2023-07-08T14:59:13;35.70;67.40
6822;DHT22;3449;48.728;8.968;2023-07-08T15:01:41;36.10;66.50
6822;DHT22;3449;48.728;8.968;2023-07-08T15:04:11;36.30;66.20
6822;DHT22;3449;48.728;8.968;2023-07-08T15:06:40;35.90;65.70
6822;DHT22;3449;48.728;8.968;2023-07-08T15:09:09;35.90;65.80
6822;DHT22;3449;48.728;8.968;2023-07-08T15:11:37;36.00;67.30
6822;DHT22;3449;48.728;8.968;2023-07-08T15:14:06;36.10;66.00
6822;DHT22;3449;48.728;8.968;2023-07-08T15:16:37;36.30;65.30
6822;DHT22;3449;48.728;8.968;2023-07-08T15:19:08;36.20;65.10
6822;DHT22;3449;48.728;8.968;2023-07-08T15:21:36;36.20;65.20
6822;DHT22;3449;48.728;8.968;2023-07-08T15:24:09;35.30;64.40
6822;DHT22;3449;48.728;8.968;2023-07-08T15:26:36;35.20;67.60
6822;DHT22;3449;48.728;8.968;2023-07-08T15:29:05;35.00;66.90
6822;DHT22;3449;48.728;8.968;2023-07-08T15:31:34;34.90;66.20
6822;DHT22;3449;48.728;8.968;2023-07-08T15:34:01;34.90;67.30
6822;DHT22;3449;48.728;8.968;2023-07-08T15:36:28;35.00;67.10
6822;DHT22;3449;48.728;8.968;2023-07-08T15:38:55;35.00;66.10
6822;DHT22;3449;48.728;8.968;2023-07-08T15:41:24;34.80;66.90
6822;DHT22;3449;48.728;8.968;2023-07-08T15:43:53;34.60;67.30
6822;DHT22;3449;48.728;8.968;2023-07-08T15:46:21;35.10;66.70
6822;DHT22;3449;48.728;8.968;2023-07-08T15:48:48;35.10;67.10
6822;DHT22;3449;48.728;8.968;2023-07-08T15:51:15;35.30;67.20
6822;DHT22;3449;48.728;8.968;2023-07-08T15:53:44;35.10;66.00
6822;DHT22;3449;48.728;8.968;2023-07-08T15:56:12;35.30;67.60
6822;DHT22;3449;48.728;8.968;2023-07-08T15:58:43;35.50;65.90
6822;DHT22;3449;48.728;8.968;2023-07-08T16:01:15;35.30;64.90
6822;DHT22;3449;48.728;8.968;2023-07-08T16:03:43;35.20;65.20
6822;DHT22;3449;48.728;8.968;2023-07-08T16:06:10;34.90;64.60
6822;DHT22;3449;48.728;8.968;2023-07-08T16:08:37;34.70;65.40
6822;DHT22;3449;48.728;8.968;2023-07-08T16:11:10;34.50;66.10
6822;DHT22;3449;48.728;8.968;2023-07-08T16:13:39;34.50;66.20
6822;DHT22;3449;48.728;8.968;2023-07-08T16:16:09;34.30;66.00
6822;DHT22;3449;48.728;8.968;2023-07-08T16:18:37;34.20;66.20
6822;DHT22;3449;48.728;8.968;2023-07-08T16:21:04;34.40;67.10
6822;DHT22;3449;48.728;8.968;2023-07-08T16:23:31;34.40;65.90
6822;DHT22;3449;48.728;8.968;2023-07-08T16:25:59;34.40;66.80